Terminal Aerodrome Forecast
Issued by NWS

Home | Current Version | Previous Version | Text Only | Print | Product List | Glossary On
Versions: 1 2 3 4 5 6 7 8 9 10 11 12 13 14 15 16 17 18 19 20 21 22 23
000
FTUS44 KLZK 310834 AAA
TAFHOT
TAF AMD
KHOT 310834Z 3109/0106 VRB03KT P6SM VCSH FEW005 SCT030 BKN250
      TEMPO 3109/3113 4SM -SHRA BR BKN025
     FM311500 14006KT P6SM VCSH SCT020 BKN050 OVC250=

USA.gov is the U.S. government's official web portal to all federal, state and local government web resources and services.